Provideniya Bay Airport
UHMD : rendu visible

Aérodrome :











RETROUVEZ-NOUS SUR...

 
LOGIN :

S'inscrire | Disclaimer

   EN    FR    IT 

 









Légende :    VFR   VFR Marginal   IFR   IFR Intensif   IFR Très Intensif
Visi : 
Plafond : 
>= 8 km
>= 3000ft
5 à 8 km
1000 à 3000 ft
1500m à 5 km
500 à 1000 ft
800 à 1500m
200 à 500 ft
< 800m
< 200 ft
Symboles :   Orages  Brouillard  Fortes neiges  Fortes précipitations  Vent > 20 kt






- Altitude de l'aérodrome : 72 ft
- Code IATA : PVS


UHMD - Provideniya Bay

DERNIER METAR :
  • 100330Z 34006MPS CAVOK M10/M14 Q1021 RMK QFE765/1020

METARs EXPIRÉS :
  • 100300Z 35006MPS CAVOK M10/M14 Q1020 RMK QFE764/1019
  • 100230Z 36006MPS CAVOK M10/M14 Q1020 RMK QFE764/1019
  • 100200Z 35006MPS CAVOK M09/M13 Q1020 RMK QFE764/1019
  • 100130Z 35007MPS CAVOK M09/M13 Q1019 RMK QFE764/1019
  • 100100Z 35007MPS CAVOK M08/M13 Q1019 RMK QFE764/1019

TAF TAF UHMD
Valide du 10 à 03h jusqu'au 10 à 09h UTC


100138Z 1003/1009 01007G12MPS 9999 SCT010 SCT020
TEMPO 1003/1009 DRSN



MET'MAP, la Météo Aéronautique d'un coup d'oeil ! - Copyright ORBIFLY Décembre 2007 - Disclaimer

ORBIFLY MET'MAP TEAM :

Programmation & Développement : Alexandra Zaïnal
Sur une idée originale de : Baudouin d'Aumeries
Assistance à la programmation : Marc-Olivier Méhu
Soutien technique & logistique : Manuel Goepfert

Contact : metmap@orbifly.com




SOURCES & CREDITS :

   NOAA       Earth
Advisory